sensor_id;sensor_type;location;lat;lon;timestamp;temperature;humidity
39493;DHT22;25176;51.060;3.720;2022-09-12T00:00:46;19.40;99.70
39493;DHT22;25176;51.060;3.720;2022-09-12T00:03:11;19.20;99.90
39493;DHT22;25176;51.060;3.720;2022-09-12T00:05:41;19.10;99.90
39493;DHT22;25176;51.060;3.720;2022-09-12T00:08:06;19.10;99.90
39493;DHT22;25176;51.060;3.720;2022-09-12T00:10:32;18.90;99.90
39493;DHT22;25176;51.060;3.720;2022-09-12T00:12:57;18.80;99.90
39493;DHT22;25176;51.060;3.720;2022-09-12T00:15:23;18.80;99.90
39493;DHT22;25176;51.060;3.720;2022-09-12T00:17:48;18.80;99.90
39493;DHT22;25176;51.060;3.720;2022-09-12T00:20:14;19.00;99.90
39493;DHT22;25176;51.060;3.720;2022-09-12T00:22:39;19.00;99.90
39493;DHT22;25176;51.060;3.720;2022-09-12T00:25:05;18.90;99.90
39493;DHT22;25176;51.060;3.720;2022-09-12T00:27:30;18.80;99.90
39493;DHT22;25176;51.060;3.720;2022-09-12T00:29:56;18.70;99.90
39493;DHT22;25176;51.060;3.720;2022-09-12T00:32:21;18.60;99.90
39493;DHT22;25176;51.060;3.720;2022-09-12T00:34:47;18.50;99.90
39493;DHT22;25176;51.060;3.720;2022-09-12T00:37:12;18.40;99.90
39493;DHT22;25176;51.060;3.720;2022-09-12T00:39:38;18.30;99.90
39493;DHT22;25176;51.060;3.720;2022-09-12T00:42:03;18.30;99.90
39493;DHT22;25176;51.060;3.720;2022-09-12T00:47:00;18.40;99.90
39493;DHT22;25176;51.060;3.720;2022-09-12T00:54:33;18.40;99.90
39493;DHT22;25176;51.060;3.720;2022-09-12T00:57:00;18.30;99.90
39493;DHT22;25176;51.060;3.720;2022-09-12T00:59:31;18.30;99.90
39493;DHT22;25176;51.060;3.720;2022-09-12T01:01:59;18.30;99.90
39493;DHT22;25176;51.060;3.720;2022-09-12T01:04:25;18.30;99.90
39493;DHT22;25176;51.060;3.720;2022-09-12T01:06:52;18.40;99.90
39493;DHT22;25176;51.060;3.720;2022-09-12T01:09:18;18.30;99.90
39493;DHT22;25176;51.060;3.720;2022-09-12T01:11:46;18.20;99.90
39493;DHT22;25176;51.060;3.720;2022-09-12T01:14:13;18.10;99.90
39493;DHT22;25176;51.060;3.720;2022-09-12T01:16:38;18.00;99.90
39493;DHT22;25176;51.060;3.720;2022-09-12T01:19:13;18.00;99.90
39493;DHT22;25176;51.060;3.720;2022-09-12T01:24:32;17.70;99.90
39493;DHT22;25176;51.060;3.720;2022-09-12T01:27:09;17.50;99.90
39493;DHT22;25176;51.060;3.720;2022-09-12T01:29:50;17.40;99.90
39493;DHT22;25176;51.060;3.720;2022-09-12T01:32:29;17.50;99.90
39493;DHT22;25176;51.060;3.720;2022-09-12T01:37:38;17.70;99.90
39493;DHT22;25176;51.060;3.720;2022-09-12T01:40:08;17.80;99.90
39493;DHT22;25176;51.060;3.720;2022-09-12T01:45:08;17.80;99.90
39493;DHT22;25176;51.060;3.720;2022-09-12T01:47:39;17.60;99.90
39493;DHT22;25176;51.060;3.720;2022-09-12T01:50:09;17.60;99.90
39493;DHT22;25176;51.060;3.720;2022-09-12T01:52:37;17.60;99.90
39493;DHT22;25176;51.060;3.720;2022-09-12T01:55:06;17.50;99.90
39493;DHT22;25176;51.060;3.720;2022-09-12T01:57:36;17.50;99.90
39493;DHT22;25176;51.060;3.720;2022-09-12T02:00:05;17.30;99.90
39493;DHT22;25176;51.060;3.720;2022-09-12T02:02:32;17.30;99.90
39493;DHT22;25176;51.060;3.720;2022-09-12T02:07:30;17.30;99.90
39493;DHT22;25176;51.060;3.720;2022-09-12T02:10:05;17.30;99.90
39493;DHT22;25176;51.060;3.720;2022-09-12T02:12:35;17.40;99.90
39493;DHT22;25176;51.060;3.720;2022-09-12T02:15:03;17.40;99.90
39493;DHT22;25176;51.060;3.720;2022-09-12T02:17:31;17.40;99.90
39493;DHT22;25176;51.060;3.720;2022-09-12T02:20:14;17.30;99.90
39493;DHT22;25176;51.060;3.720;2022-09-12T02:22:41;17.30;99.90
39493;DHT22;25176;51.060;3.720;2022-09-12T02:25:08;17.30;99.90
39493;DHT22;25176;51.060;3.720;2022-09-12T02:27:36;17.40;99.90
39493;DHT22;25176;51.060;3.720;2022-09-12T02:30:05;17.40;99.90
39493;DHT22;25176;51.060;3.720;2022-09-12T02:32:35;17.50;99.90
39493;DHT22;25176;51.060;3.720;2022-09-12T02:38:06;17.40;99.90
39493;DHT22;25176;51.060;3.720;2022-09-12T02:40:34;17.20;99.90
39493;DHT22;25176;51.060;3.720;2022-09-12T02:43:00;17.20;99.90
39493;DHT22;25176;51.060;3.720;2022-09-12T02:45:27;17.30;99.90
39493;DHT22;25176;51.060;3.720;2022-09-12T02:47:55;17.40;99.90
39493;DHT22;25176;51.060;3.720;2022-09-12T02:50:22;17.40;99.90
39493;DHT22;25176;51.060;3.720;2022-09-12T02:52:49;17.50;99.90
39493;DHT22;25176;51.060;3.720;2022-09-12T02:55:14;17.60;99.90
39493;DHT22;25176;51.060;3.720;2022-09-12T02:57:40;17.50;99.90
39493;DHT22;25176;51.060;3.720;2022-09-12T03:00:06;17.40;99.90
39493;DHT22;25176;51.060;3.720;2022-09-12T03:02:50;17.40;99.90
39493;DHT22;25176;51.060;3.720;2022-09-12T03:05:34;17.30;99.90
39493;DHT22;25176;51.060;3.720;2022-09-12T03:08:13;17.20;99.90
39493;DHT22;25176;51.060;3.720;2022-09-12T03:25:58;17.60;99.90
39493;DHT22;25176;51.060;3.720;2022-09-12T03:28:23;17.60;99.90
39493;DHT22;25176;51.060;3.720;2022-09-12T03:30:49;17.60;99.90
39493;DHT22;25176;51.060;3.720;2022-09-12T03:33:18;17.50;99.90
39493;DHT22;25176;51.060;3.720;2022-09-12T03:35:44;17.40;99.90
39493;DHT22;25176;51.060;3.720;2022-09-12T03:38:10;17.50;99.90
39493;DHT22;25176;51.060;3.720;2022-09-12T03:40:36;17.50;99.90
39493;DHT22;25176;51.060;3.720;2022-09-12T03:43:02;17.60;99.90
39493;DHT22;25176;51.060;3.720;2022-09-12T03:45:28;17.70;99.90
39493;DHT22;25176;51.060;3.720;2022-09-12T03:47:53;17.70;99.90
39493;DHT22;25176;51.060;3.720;2022-09-12T03:50:19;17.70;99.90
39493;DHT22;25176;51.060;3.720;2022-09-12T03:52:44;17.70;99.90
39493;DHT22;25176;51.060;3.720;2022-09-12T03:55:10;17.80;99.90
39493;DHT22;25176;51.060;3.720;2022-09-12T03:57:36;17.80;99.90
39493;DHT22;25176;51.060;3.720;2022-09-12T04:00:02;17.80;99.90
39493;DHT22;25176;51.060;3.720;2022-09-12T04:02:28;17.90;99.90
39493;DHT22;25176;51.060;3.720;2022-09-12T04:04:53;17.90;99.90
39493;DHT22;25176;51.060;3.720;2022-09-12T04:07:19;18.00;99.90
39493;DHT22;25176;51.060;3.720;2022-09-12T04:09:44;18.00;99.90
39493;DHT22;25176;51.060;3.720;2022-09-12T04:12:10;18.00;99.90
39493;DHT22;25176;51.060;3.720;2022-09-12T04:14:35;18.00;99.90
39493;DHT22;25176;51.060;3.720;2022-09-12T04:17:01;18.10;99.90
39493;DHT22;25176;51.060;3.720;2022-09-12T04:19:26;18.10;99.90
39493;DHT22;25176;51.060;3.720;2022-09-12T04:21:52;18.10;99.90
39493;DHT22;25176;51.060;3.720;2022-09-12T04:24:18;18.20;99.90
39493;DHT22;25176;51.060;3.720;2022-09-12T04:26:43;18.10;99.90
39493;DHT22;25176;51.060;3.720;2022-09-12T04:29:12;18.20;99.90
39493;DHT22;25176;51.060;3.720;2022-09-12T04:31:39;18.10;99.90
39493;DHT22;25176;51.060;3.720;2022-09-12T04:34:05;18.10;99.90
39493;DHT22;25176;51.060;3.720;2022-09-12T04:36:30;18.10;99.90
39493;DHT22;25176;51.060;3.720;2022-09-12T04:38:57;18.10;99.90
39493;DHT22;25176;51.060;3.720;2022-09-12T04:41:25;18.20;99.90
39493;DHT22;25176;51.060;3.720;2022-09-12T04:43:51;18.20;99.90
39493;DHT22;25176;51.060;3.720;2022-09-12T04:46:17;18.20;99.90
39493;DHT22;25176;51.060;3.720;2022-09-12T04:48:44;18.10;99.90
39493;DHT22;25176;51.060;3.720;2022-09-12T04:51:11;18.10;99.90
39493;DHT22;25176;51.060;3.720;2022-09-12T04:53:38;18.10;99.90
39493;DHT22;25176;51.060;3.720;2022-09-12T04:56:04;18.10;99.90
39493;DHT22;25176;51.060;3.720;2022-09-12T04:58:30;18.00;99.90
39493;DHT22;25176;51.060;3.720;2022-09-12T05:01:02;18.00;99.90
39493;DHT22;25176;51.060;3.720;2022-09-12T05:03:27;18.00;99.90
39493;DHT22;25176;51.060;3.720;2022-09-12T05:05:53;18.00;99.90
39493;DHT22;25176;51.060;3.720;2022-09-12T05:08:18;17.90;99.90
39493;DHT22;25176;51.060;3.720;2022-09-12T05:10:44;17.90;99.90
39493;DHT22;25176;51.060;3.720;2022-09-12T05:13:09;18.00;99.90
39493;DHT22;25176;51.060;3.720;2022-09-12T05:15:34;18.00;99.90
39493;DHT22;25176;51.060;3.720;2022-09-12T05:18:00;18.00;99.90
39493;DHT22;25176;51.060;3.720;2022-09-12T05:20:25;17.90;99.90
39493;DHT22;25176;51.060;3.720;2022-09-12T05:22:51;17.80;99.90
39493;DHT22;25176;51.060;3.720;2022-09-12T05:25:16;17.70;99.90
39493;DHT22;25176;51.060;3.720;2022-09-12T05:27:42;17.70;99.90
39493;DHT22;25176;51.060;3.720;2022-09-12T05:30:07;17.70;99.90
39493;DHT22;25176;51.060;3.720;2022-09-12T05:32:33;17.70;99.90
39493;DHT22;25176;51.060;3.720;2022-09-12T05:34:59;17.60;99.90
39493;DHT22;25176;51.060;3.720;2022-09-12T05:37:25;17.70;99.90
39493;DHT22;25176;51.060;3.720;2022-09-12T05:39:50;17.60;99.90
39493;DHT22;25176;51.060;3.720;2022-09-12T05:42:17;17.50;99.90
39493;DHT22;25176;51.060;3.720;2022-09-12T05:44:42;17.50;99.90
39493;DHT22;25176;51.060;3.720;2022-09-12T05:47:09;17.50;99.90
39493;DHT22;25176;51.060;3.720;2022-09-12T05:49:35;17.40;99.90
39493;DHT22;25176;51.060;3.720;2022-09-12T05:52:01;17.20;99.90
39493;DHT22;25176;51.060;3.720;2022-09-12T05:54:27;17.10;99.90
39493;DHT22;25176;51.060;3.720;2022-09-12T05:56:53;17.00;99.90
39493;DHT22;25176;51.060;3.720;2022-09-12T05:59:19;16.90;99.90
39493;DHT22;25176;51.060;3.720;2022-09-12T06:01:45;16.80;99.90
39493;DHT22;25176;51.060;3.720;2022-09-12T06:04:11;16.90;99.90
39493;DHT22;25176;51.060;3.720;2022-09-12T06:06:37;17.00;99.90
39493;DHT22;25176;51.060;3.720;2022-09-12T06:09:06;17.00;99.90
39493;DHT22;25176;51.060;3.720;2022-09-12T06:11:32;17.10;99.90
39493;DHT22;25176;51.060;3.720;2022-09-12T06:13:59;17.10;99.90
39493;DHT22;25176;51.060;3.720;2022-09-12T06:16:25;17.10;99.90
39493;DHT22;25176;51.060;3.720;2022-09-12T06:18:52;17.00;99.90
39493;DHT22;25176;51.060;3.720;2022-09-12T06:21:19;17.00;99.90
39493;DHT22;25176;51.060;3.720;2022-09-12T06:23:45;17.00;99.90
39493;DHT22;25176;51.060;3.720;2022-09-12T06:26:12;17.10;99.90
39493;DHT22;25176;51.060;3.720;2022-09-12T06:28:39;17.20;99.90
39493;DHT22;25176;51.060;3.720;2022-09-12T06:31:06;17.30;99.90
39493;DHT22;25176;51.060;3.720;2022-09-12T06:33:32;17.40;99.90
39493;DHT22;25176;51.060;3.720;2022-09-12T06:36:04;17.60;99.90
39493;DHT22;25176;51.060;3.720;2022-09-12T06:38:31;17.70;99.90
39493;DHT22;25176;51.060;3.720;2022-09-12T06:40:57;18.00;99.90
39493;DHT22;25176;51.060;3.720;2022-09-12T06:43:22;18.10;99.90
39493;DHT22;25176;51.060;3.720;2022-09-12T06:45:48;18.10;99.90
39493;DHT22;25176;51.060;3.720;2022-09-12T06:48:14;18.20;99.90
39493;DHT22;25176;51.060;3.720;2022-09-12T06:50:40;18.20;99.90
39493;DHT22;25176;51.060;3.720;2022-09-12T06:53:06;18.30;99.90
39493;DHT22;25176;51.060;3.720;2022-09-12T06:55:32;18.40;99.90
39493;DHT22;25176;51.060;3.720;2022-09-12T06:57:58;18.50;99.90
39493;DHT22;25176;51.060;3.720;2022-09-12T07:00:23;18.50;99.90
39493;DHT22;25176;51.060;3.720;2022-09-12T07:02:52;18.60;99.90
39493;DHT22;25176;51.060;3.720;2022-09-12T07:05:22;18.70;99.90
39493;DHT22;25176;51.060;3.720;2022-09-12T07:07:51;18.80;99.90
39493;DHT22;25176;51.060;3.720;2022-09-12T07:10:17;18.90;99.90
39493;DHT22;25176;51.060;3.720;2022-09-12T07:12:43;19.00;99.90
39493;DHT22;25176;51.060;3.720;2022-09-12T07:15:08;18.90;99.90
39493;DHT22;25176;51.060;3.720;2022-09-12T07:17:34;19.10;99.90
39493;DHT22;25176;51.060;3.720;2022-09-12T07:20:00;19.20;99.90
39493;DHT22;25176;51.060;3.720;2022-09-12T07:22:25;19.20;99.90
39493;DHT22;25176;51.060;3.720;2022-09-12T07:24:51;19.30;99.90
39493;DHT22;25176;51.060;3.720;2022-09-12T07:27:18;19.40;99.90
39493;DHT22;25176;51.060;3.720;2022-09-12T07:29:43;19.60;99.90
39493;DHT22;25176;51.060;3.720;2022-09-12T07:32:11;19.90;99.90
39493;DHT22;25176;51.060;3.720;2022-09-12T07:34:36;20.00;99.90
39493;DHT22;25176;51.060;3.720;2022-09-12T07:37:02;20.10;99.90
39493;DHT22;25176;51.060;3.720;2022-09-12T07:39:28;20.40;99.90
39493;DHT22;25176;51.060;3.720;2022-09-12T07:41:53;21.80;99.90
39493;DHT22;25176;51.060;3.720;2022-09-12T07:44:20;23.80;96.90
39493;DHT22;25176;51.060;3.720;2022-09-12T07:46:47;25.90;93.40
39493;DHT22;25176;51.060;3.720;2022-09-12T07:49:14;28.30;89.40
39493;DHT22;25176;51.060;3.720;2022-09-12T07:51:41;28.20;79.80
39493;DHT22;25176;51.060;3.720;2022-09-12T07:54:12;28.40;77.20
39493;DHT22;25176;51.060;3.720;2022-09-12T07:56:45;28.40;76.30
39493;DHT22;25176;51.060;3.720;2022-09-12T07:59:15;29.50;73.70
39493;DHT22;25176;51.060;3.720;2022-09-12T08:01:41;31.40;69.40
39493;DHT22;25176;51.060;3.720;2022-09-12T08:04:07;32.50;64.70
39493;DHT22;25176;51.060;3.720;2022-09-12T08:06:33;33.90;61.40
39493;DHT22;25176;51.060;3.720;2022-09-12T08:09:00;35.50;58.30
39493;DHT22;25176;51.060;3.720;2022-09-12T08:11:26;37.10;54.90
39493;DHT22;25176;51.060;3.720;2022-09-12T08:13:53;38.50;52.30
39493;DHT22;25176;51.060;3.720;2022-09-12T08:16:20;39.40;49.40
39493;DHT22;25176;51.060;3.720;2022-09-12T08:18:46;39.20;48.70
39493;DHT22;25176;51.060;3.720;2022-09-12T08:21:16;38.80;48.30
39493;DHT22;25176;51.060;3.720;2022-09-12T08:23:42;38.90;48.00
39493;DHT22;25176;51.060;3.720;2022-09-12T08:26:09;38.90;47.70
39493;DHT22;25176;51.060;3.720;2022-09-12T08:28:34;39.00;47.50
39493;DHT22;25176;51.060;3.720;2022-09-12T08:31:01;39.90;46.00
39493;DHT22;25176;51.060;3.720;2022-09-12T08:33:27;41.30;45.30
39493;DHT22;25176;51.060;3.720;2022-09-12T08:38:29;43.20;43.10
39493;DHT22;25176;51.060;3.720;2022-09-12T08:40:59;43.10;43.20
39493;DHT22;25176;51.060;3.720;2022-09-12T08:45:57;44.10;41.00
39493;DHT22;25176;51.060;3.720;2022-09-12T08:48:24;45.00;40.80
39493;DHT22;25176;51.060;3.720;2022-09-12T08:50:50;44.10;41.00
39493;DHT22;25176;51.060;3.720;2022-09-12T08:53:17;45.60;39.70
39493;DHT22;25176;51.060;3.720;2022-09-12T08:55:49;46.50;39.80
39493;DHT22;25176;51.060;3.720;2022-09-12T08:58:18;46.50;39.20
39493;DHT22;25176;51.060;3.720;2022-09-12T09:00:46;47.30;38.40
39493;DHT22;25176;51.060;3.720;2022-09-12T09:06:14;48.70;37.70
39493;DHT22;25176;51.060;3.720;2022-09-12T09:08:50;48.70;36.90
39493;DHT22;25176;51.060;3.720;2022-09-12T09:11:44;49.30;36.80
39493;DHT22;25176;51.060;3.720;2022-09-12T09:17:11;49.90;36.80
39493;DHT22;25176;51.060;3.720;2022-09-12T09:19:55;50.60;35.80
39493;DHT22;25176;51.060;3.720;2022-09-12T09:24:49;50.30;35.70
39493;DHT22;25176;51.060;3.720;2022-09-12T09:29:47;49.70;35.90
39493;DHT22;25176;51.060;3.720;2022-09-12T09:32:16;48.60;35.90
39493;DHT22;25176;51.060;3.720;2022-09-12T09:34:43;48.20;36.20
39493;DHT22;25176;51.060;3.720;2022-09-12T09:44:47;47.20;36.60
39493;DHT22;25176;51.060;3.720;2022-09-12T09:47:13;46.80;36.40
39493;DHT22;25176;51.060;3.720;2022-09-12T09:49:39;45.70;37.00
39493;DHT22;25176;51.060;3.720;2022-09-12T09:52:06;44.80;37.10
39493;DHT22;25176;51.060;3.720;2022-09-12T09:54:34;44.30;38.20
39493;DHT22;25176;51.060;3.720;2022-09-12T09:57:00;45.30;37.80
39493;DHT22;25176;51.060;3.720;2022-09-12T09:59:27;47.10;37.00
39493;DHT22;25176;51.060;3.720;2022-09-12T10:04:40;47.40;36.10
39493;DHT22;25176;51.060;3.720;2022-09-12T10:07:05;47.30;36.40
39493;DHT22;25176;51.060;3.720;2022-09-12T10:09:34;46.40;36.20
39493;DHT22;25176;51.060;3.720;2022-09-12T10:12:01;44.50;37.00
39493;DHT22;25176;51.060;3.720;2022-09-12T10:14:43;43.60;38.10
39493;DHT22;25176;51.060;3.720;2022-09-12T10:17:30;43.10;38.70
39493;DHT22;25176;51.060;3.720;2022-09-12T10:19:57;41.60;39.10
39493;DHT22;25176;51.060;3.720;2022-09-12T10:22:26;40.90;40.00
39493;DHT22;25176;51.060;3.720;2022-09-12T10:24:54;41.10;39.40
39493;DHT22;25176;51.060;3.720;2022-09-12T10:27:25;41.90;39.40
39493;DHT22;25176;51.060;3.720;2022-09-12T10:29:53;41.30;39.10
39493;DHT22;25176;51.060;3.720;2022-09-12T10:32:26;41.00;39.60
39493;DHT22;25176;51.060;3.720;2022-09-12T10:35:03;38.00;41.60
39493;DHT22;25176;51.060;3.720;2022-09-12T10:37:35;37.90;42.40
39493;DHT22;25176;51.060;3.720;2022-09-12T10:40:02;37.60;42.10
39493;DHT22;25176;51.060;3.720;2022-09-12T10:42:41;36.80;42.70
39493;DHT22;25176;51.060;3.720;2022-09-12T10:45:27;36.10;43.60
39493;DHT22;25176;51.060;3.720;2022-09-12T10:47:57;35.00;45.20
39493;DHT22;25176;51.060;3.720;2022-09-12T10:50:40;34.50;45.60
39493;DHT22;25176;51.060;3.720;2022-09-12T10:53:28;35.00;45.50
39493;DHT22;25176;51.060;3.720;2022-09-12T10:58:45;33.70;46.70
39493;DHT22;25176;51.060;3.720;2022-09-12T11:03:48;30.90;50.20
39493;DHT22;25176;51.060;3.720;2022-09-12T11:06:18;30.10;51.70
39493;DHT22;25176;51.060;3.720;2022-09-12T11:19:06;28.10;55.70
39493;DHT22;25176;51.060;3.720;2022-09-12T11:27:03;27.70;55.80
39493;DHT22;25176;51.060;3.720;2022-09-12T11:30:10;27.70;55.40
39493;DHT22;25176;51.060;3.720;2022-09-12T11:32:15;27.70;55.50
39493;DHT22;25176;51.060;3.720;2022-09-12T11:39:55;27.20;57.30
39493;DHT22;25176;51.060;3.720;2022-09-12T11:42:27;27.10;57.70
39493;DHT22;25176;51.060;3.720;2022-09-12T11:45:03;27.30;57.40
39493;DHT22;25176;51.060;3.720;2022-09-12T11:47:31;27.40;57.50
39493;DHT22;25176;51.060;3.720;2022-09-12T11:49:58;27.60;57.30
39493;DHT22;25176;51.060;3.720;2022-09-12T11:52:28;27.50;57.40
39493;DHT22;25176;51.060;3.720;2022-09-12T11:55:04;27.60;57.10
39493;DHT22;25176;51.060;3.720;2022-09-12T11:57:44;27.60;57.50
39493;DHT22;25176;51.060;3.720;2022-09-12T12:02:39;27.20;57.90
39493;DHT22;25176;51.060;3.720;2022-09-12T12:05:15;27.10;57.30
39493;DHT22;25176;51.060;3.720;2022-09-12T12:07:53;26.70;58.00
39493;DHT22;25176;51.060;3.720;2022-09-12T12:12:54;27.00;58.20
39493;DHT22;25176;51.060;3.720;2022-09-12T12:15:20;27.00;58.00
39493;DHT22;25176;51.060;3.720;2022-09-12T12:17:58;27.20;58.20
39493;DHT22;25176;51.060;3.720;2022-09-12T12:20:25;27.30;58.10
39493;DHT22;25176;51.060;3.720;2022-09-12T12:22:52;27.50;58.10
39493;DHT22;25176;51.060;3.720;2022-09-12T12:32:58;27.60;56.80
39493;DHT22;25176;51.060;3.720;2022-09-12T12:35:36;27.50;57.20
39493;DHT22;25176;51.060;3.720;2022-09-12T12:38:02;27.60;56.90
39493;DHT22;25176;51.060;3.720;2022-09-12T12:40:29;27.70;56.20
39493;DHT22;25176;51.060;3.720;2022-09-12T12:42:56;27.80;56.00
39493;DHT22;25176;51.060;3.720;2022-09-12T12:47:56;28.10;56.40
39493;DHT22;25176;51.060;3.720;2022-09-12T12:50:25;28.20;55.30
39493;DHT22;25176;51.060;3.720;2022-09-12T12:52:58;27.80;56.50
39493;DHT22;25176;51.060;3.720;2022-09-12T12:55:44;28.00;56.20
39493;DHT22;25176;51.060;3.720;2022-09-12T13:03:40;28.20;55.20
39493;DHT22;25176;51.060;3.720;2022-09-12T13:06:08;28.30;56.50
39493;DHT22;25176;51.060;3.720;2022-09-12T13:09:06;28.20;55.90
39493;DHT22;25176;51.060;3.720;2022-09-12T13:11:35;28.00;56.20
39493;DHT22;25176;51.060;3.720;2022-09-12T13:14:05;27.90;56.70
39493;DHT22;25176;51.060;3.720;2022-09-12T13:16:35;28.00;55.70
39493;DHT22;25176;51.060;3.720;2022-09-12T13:19:02;27.80;56.40
39493;DHT22;25176;51.060;3.720;2022-09-12T13:21:30;27.80;56.90
39493;DHT22;25176;51.060;3.720;2022-09-12T13:23:57;27.70;57.20
39493;DHT22;25176;51.060;3.720;2022-09-12T13:26:24;27.60;56.90
39493;DHT22;25176;51.060;3.720;2022-09-12T13:29:07;27.60;57.80
39493;DHT22;25176;51.060;3.720;2022-09-12T13:31:33;27.60;56.90
39493;DHT22;25176;51.060;3.720;2022-09-12T13:33:59;27.50;57.40
39493;DHT22;25176;51.060;3.720;2022-09-12T13:44:22;27.50;57.60
39493;DHT22;25176;51.060;3.720;2022-09-12T13:46:48;27.30;58.30
39493;DHT22;25176;51.060;3.720;2022-09-12T13:49:19;27.40;57.20
39493;DHT22;25176;51.060;3.720;2022-09-12T13:51:45;27.60;57.00
39493;DHT22;25176;51.060;3.720;2022-09-12T13:54:17;27.00;56.80
39493;DHT22;25176;51.060;3.720;2022-09-12T13:56:47;26.70;58.00
39493;DHT22;25176;51.060;3.720;2022-09-12T13:59:12;26.80;59.00
39493;DHT22;25176;51.060;3.720;2022-09-12T14:01:39;26.80;58.80
39493;DHT22;25176;51.060;3.720;2022-09-12T14:04:18;26.90;58.70
39493;DHT22;25176;51.060;3.720;2022-09-12T14:07:13;26.90;58.60
39493;DHT22;25176;51.060;3.720;2022-09-12T14:09:41;26.90;59.40
39493;DHT22;25176;51.060;3.720;2022-09-12T14:12:19;26.80;57.30
39493;DHT22;25176;51.060;3.720;2022-09-12T14:14:49;26.80;58.40
39493;DHT22;25176;51.060;3.720;2022-09-12T14:17:23;26.80;59.20
39493;DHT22;25176;51.060;3.720;2022-09-12T14:19:49;27.00;58.00
39493;DHT22;25176;51.060;3.720;2022-09-12T14:22:15;26.80;58.00
39493;DHT22;25176;51.060;3.720;2022-09-12T14:24:46;26.70;59.20
39493;DHT22;25176;51.060;3.720;2022-09-12T14:27:16;26.90;58.50
39493;DHT22;25176;51.060;3.720;2022-09-12T14:29:42;26.90;58.50
39493;DHT22;25176;51.060;3.720;2022-09-12T14:32:12;26.80;58.50
39493;DHT22;25176;51.060;3.720;2022-09-12T14:34:41;26.90;57.90
39493;DHT22;25176;51.060;3.720;2022-09-12T14:37:27;26.80;58.40
39493;DHT22;25176;51.060;3.720;2022-09-12T14:39:52;26.90;57.90
39493;DHT22;25176;51.060;3.720;2022-09-12T14:42:19;26.90;58.00
39493;DHT22;25176;51.060;3.720;2022-09-12T14:44:51;26.70;58.90
39493;DHT22;25176;51.060;3.720;2022-09-12T14:47:20;26.80;57.70
39493;DHT22;25176;51.060;3.720;2022-09-12T14:49:46;26.80;58.00
39493;DHT22;25176;51.060;3.720;2022-09-12T14:52:20;26.70;58.90
39493;DHT22;25176;51.060;3.720;2022-09-12T14:54:57;26.70;58.10
39493;DHT22;25176;51.060;3.720;2022-09-12T14:57:31;26.70;57.70
39493;DHT22;25176;51.060;3.720;2022-09-12T15:02:35;26.50;57.80
39493;DHT22;25176;51.060;3.720;2022-09-12T15:07:37;26.70;58.40
39493;DHT22;25176;51.060;3.720;2022-09-12T15:10:25;26.60;58.80
39493;DHT22;25176;51.060;3.720;2022-09-12T15:12:50;26.60;58.00
39493;DHT22;25176;51.060;3.720;2022-09-12T15:15:27;26.60;58.10
39493;DHT22;25176;51.060;3.720;2022-09-12T15:17:52;26.70;58.10
39493;DHT22;25176;51.060;3.720;2022-09-12T15:20:18;26.70;57.80
39493;DHT22;25176;51.060;3.720;2022-09-12T15:22:43;26.60;58.10
39493;DHT22;25176;51.060;3.720;2022-09-12T15:25:09;26.60;58.40
39493;DHT22;25176;51.060;3.720;2022-09-12T15:27:34;26.50;58.00
39493;DHT22;25176;51.060;3.720;2022-09-12T15:30:05;26.50;58.10
39493;DHT22;25176;51.060;3.720;2022-09-12T15:32:31;26.50;57.70
39493;DHT22;25176;51.060;3.720;2022-09-12T15:34:56;26.50;57.40
39493;DHT22;25176;51.060;3.720;2022-09-12T15:37:22;26.30;57.60
39493;DHT22;25176;51.060;3.720;2022-09-12T15:39:48;26.30;58.40
39493;DHT22;25176;51.060;3.720;2022-09-12T15:42:14;26.30;58.70
39493;DHT22;25176;51.060;3.720;2022-09-12T15:44:40;26.60;57.60
39493;DHT22;25176;51.060;3.720;2022-09-12T15:47:05;26.60;57.60
39493;DHT22;25176;51.060;3.720;2022-09-12T15:49:32;26.50;57.70
39493;DHT22;25176;51.060;3.720;2022-09-12T15:51:58;26.50;57.70
39493;DHT22;25176;51.060;3.720;2022-09-12T15:54:23;26.50;58.10
39493;DHT22;25176;51.060;3.720;2022-09-12T15:56:48;26.50;57.30
39493;DHT22;25176;51.060;3.720;2022-09-12T15:59:14;26.50;57.60
39493;DHT22;25176;51.060;3.720;2022-09-12T16:01:39;26.40;57.20
39493;DHT22;25176;51.060;3.720;2022-09-12T16:04:17;26.10;58.20
39493;DHT22;25176;51.060;3.720;2022-09-12T16:06:43;26.00;59.40
39493;DHT22;25176;51.060;3.720;2022-09-12T16:09:09;26.00;59.60
39493;DHT22;25176;51.060;3.720;2022-09-12T16:11:34;26.00;59.20
39493;DHT22;25176;51.060;3.720;2022-09-12T16:14:00;26.00;58.70
39493;DHT22;25176;51.060;3.720;2022-09-12T16:16:25;26.00;59.00
39493;DHT22;25176;51.060;3.720;2022-09-12T16:18:51;26.10;59.10
39493;DHT22;25176;51.060;3.720;2022-09-12T16:21:16;26.20;59.30
39493;DHT22;25176;51.060;3.720;2022-09-12T16:23:42;26.30;59.10
39493;DHT22;25176;51.060;3.720;2022-09-12T16:26:08;26.30;58.80
39493;DHT22;25176;51.060;3.720;2022-09-12T16:28:33;26.30;59.70
39493;DHT22;25176;51.060;3.720;2022-09-12T16:31:00;26.50;59.00
39493;DHT22;25176;51.060;3.720;2022-09-12T16:33:25;26.40;58.70
39493;DHT22;25176;51.060;3.720;2022-09-12T16:35:51;26.60;58.20
39493;DHT22;25176;51.060;3.720;2022-09-12T16:38:20;26.50;58.90
39493;DHT22;25176;51.060;3.720;2022-09-12T16:40:45;26.60;58.20
39493;DHT22;25176;51.060;3.720;2022-09-12T16:43:11;26.50;58.10
39493;DHT22;25176;51.060;3.720;2022-09-12T16:45:36;26.50;58.10
39493;DHT22;25176;51.060;3.720;2022-09-12T16:48:02;26.50;58.30
39493;DHT22;25176;51.060;3.720;2022-09-12T16:50:27;26.40;58.80
39493;DHT22;25176;51.060;3.720;2022-09-12T16:52:53;26.30;59.20
39493;DHT22;25176;51.060;3.720;2022-09-12T16:55:19;26.20;58.80
39493;DHT22;25176;51.060;3.720;2022-09-12T16:57:44;26.10;59.40
39493;DHT22;25176;51.060;3.720;2022-09-12T17:00:11;26.20;59.40
39493;DHT22;25176;51.060;3.720;2022-09-12T17:02:38;26.20;59.30
39493;DHT22;25176;51.060;3.720;2022-09-12T17:05:04;26.20;59.10
39493;DHT22;25176;51.060;3.720;2022-09-12T17:07:29;26.10;59.20
39493;DHT22;25176;51.060;3.720;2022-09-12T17:09:55;26.10;59.20
39493;DHT22;25176;51.060;3.720;2022-09-12T17:12:21;26.10;59.80
39493;DHT22;25176;51.060;3.720;2022-09-12T17:14:48;26.10;59.70
39493;DHT22;25176;51.060;3.720;2022-09-12T17:17:13;26.10;59.80
39493;DHT22;25176;51.060;3.720;2022-09-12T17:19:39;26.00;59.70
39493;DHT22;25176;51.060;3.720;2022-09-12T17:22:04;26.00;59.70
39493;DHT22;25176;51.060;3.720;2022-09-12T17:24:30;26.00;59.50
39493;DHT22;25176;51.060;3.720;2022-09-12T17:26:55;25.90;59.50
39493;DHT22;25176;51.060;3.720;2022-09-12T17:29:21;25.90;59.80
39493;DHT22;25176;51.060;3.720;2022-09-12T17:31:46;26.10;59.70
39493;DHT22;25176;51.060;3.720;2022-09-12T17:34:12;25.90;59.50
39493;DHT22;25176;51.060;3.720;2022-09-12T17:36:42;26.00;59.80
39493;DHT22;25176;51.060;3.720;2022-09-12T17:39:12;25.90;59.90